Elkhart, IN

7:41 AM EDT on August 31, 2015 (GMT -0400)
East Jackson Blvd | | Change Station
CLOSE
Current Station
Personal Weather Station
Location: Elkhart, IN
Elevation: 753 ft
Nearby Weather Stations
Active Advisory: Dense Fog Advisory

Elev 753 ft 41.69 °N, 85.94 °W | Updated 12 seconds ago

Fog
Fog
63.3 °F
Feels Like 63.3 °F
N
0.0
Wind Variable Wind from East
Gusts 1.6 mph

Today
High -- | Low -- °F
--% Chance of Precip.
Yesterday
High -- | Low -- °F
Precip. -- in
7:08 AM 8:19 PM
Waning Gibbous, 96% visible
Pressure 30.07 in
Visibility 0.5 miles
Clouds Overcast 100 ft
Dew Point 62 °F
Humidity 97%
Rainfall 0.00 in
Snow Depth Not available.
UV 0 out of 12
Pollen 10.40 out of 12
Air Quality Not available.
Flu Activity Not available.
METAR KEKM 311050Z 00000KT 1/2SM FG OVC001 16/16 A3007 RMK A02
Pressure 30.07 in
Visibility 0.5 miles
Clouds Overcast 100 ft
Dew Point 62 °F
Humidity 97%
Rainfall 0.00 in
Snow Depth Not available.
UV 0 out of 12
Pollen 10.40 out of 12
Air Quality Not available.
Flu Activity Not available.
METAR KEKM 311050Z 00000KT 1/2SM FG OVC001 16/16 A3007 RMK A02

10-Day Weather Forecast

×

Almanac

Astronomy

Aug. 31, 2015 Rise Set
Actual Time
Civil Twilight
Nautical Twilight
Astronomical Twilight
Moon
Length of Visible Light
Length of Day
Tomorrow will be .
, % of the Moon is Illuminated

Today's Extremes

State Highs State Lows

Community

WunderPhotos

Upload Photos

1,851,219 photos uploaded!

WunderBlogs® & News

Nearby

Air Quality

  Air Quality AQ Index Pollutant
Not available.

Snow Depth

Station Depth Elevation

Earthquake Activity

City Distance Mag. Time & Date
Minimum magnitude displayed is 2.5.

Coastal Water Temperatures

Place Temperature

Stations

Nearby Weather Stations

Station Location Temp. Windchill Dew Point Humidity Wind Precip. Elev Updated Type
                   
Dense Fog Advisory
Statement as of 3:13 AM EDT on August 31, 2015

... Dense fog advisory remains in effect until 9 am EDT /8 am CDT/
this morning...

* hazardous weather... areas of dense fog with visibilities
reduced to a 1/4 mile or less will impact travel early this
morning.

* Impacts... travel will be difficult in areas of dense fog.

Precautionary/preparedness actions...

A dense fog advisory means visibilities will frequently be
reduced to less than one quarter mile. If driving... slow down...
use your headlights... and leave plenty of distance ahead of you.